sensor_id;sensor_type;location;lat;lon;timestamp;temperature;humidity
56512;DHT22;42408;53.238;5.686;2022-10-30T00:02:05;14.50;99.90
56512;DHT22;42408;53.238;5.686;2022-10-30T00:04:31;14.40;99.90
56512;DHT22;42408;53.238;5.686;2022-10-30T00:06:56;14.40;99.90
56512;DHT22;42408;53.238;5.686;2022-10-30T00:09:22;14.40;99.90
56512;DHT22;42408;53.238;5.686;2022-10-30T00:11:47;14.40;99.90
56512;DHT22;42408;53.238;5.686;2022-10-30T00:14:13;14.40;99.90
56512;DHT22;42408;53.238;5.686;2022-10-30T00:16:39;14.30;99.90
56512;DHT22;42408;53.238;5.686;2022-10-30T00:19:04;14.40;99.90
56512;DHT22;42408;53.238;5.686;2022-10-30T00:21:30;14.30;99.90
56512;DHT22;42408;53.238;5.686;2022-10-30T00:23:55;14.30;99.90
56512;DHT22;42408;53.238;5.686;2022-10-30T00:26:21;14.30;99.90
56512;DHT22;42408;53.238;5.686;2022-10-30T00:28:50;14.40;99.90
56512;DHT22;42408;53.238;5.686;2022-10-30T00:31:16;14.30;99.90
56512;DHT22;42408;53.238;5.686;2022-10-30T00:33:42;14.30;99.90
56512;DHT22;42408;53.238;5.686;2022-10-30T00:36:07;14.30;99.90
56512;DHT22;42408;53.238;5.686;2022-10-30T00:38:33;14.20;99.90
56512;DHT22;42408;53.238;5.686;2022-10-30T00:40:59;14.20;99.90
56512;DHT22;42408;53.238;5.686;2022-10-30T00:43:28;14.20;99.90
56512;DHT22;42408;53.238;5.686;2022-10-30T00:45:54;14.20;99.90
56512;DHT22;42408;53.238;5.686;2022-10-30T00:48:21;14.10;99.90
56512;DHT22;42408;53.238;5.686;2022-10-30T00:50:49;14.10;99.90
56512;DHT22;42408;53.238;5.686;2022-10-30T00:53:15;14.10;99.90
56512;DHT22;42408;53.238;5.686;2022-10-30T00:55:43;14.20;99.90
56512;DHT22;42408;53.238;5.686;2022-10-30T00:58:12;14.10;99.90
56512;DHT22;42408;53.238;5.686;2022-10-30T01:00:40;14.20;99.90
56512;DHT22;42408;53.238;5.686;2022-10-30T01:03:07;14.10;99.90
56512;DHT22;42408;53.238;5.686;2022-10-30T01:05:32;14.10;99.90
56512;DHT22;42408;53.238;5.686;2022-10-30T01:07:58;14.10;99.90
56512;DHT22;42408;53.238;5.686;2022-10-30T01:10:24;14.20;99.90
56512;DHT22;42408;53.238;5.686;2022-10-30T01:12:49;14.20;99.90
56512;DHT22;42408;53.238;5.686;2022-10-30T01:15:16;14.20;99.90
56512;DHT22;42408;53.238;5.686;2022-10-30T01:17:49;14.20;99.90
56512;DHT22;42408;53.238;5.686;2022-10-30T01:27:48;14.10;99.90
56512;DHT22;42408;53.238;5.686;2022-10-30T01:35:23;14.00;99.90
56512;DHT22;42408;53.238;5.686;2022-10-30T01:37:53;14.00;99.90
56512;DHT22;42408;53.238;5.686;2022-10-30T01:40:21;14.00;99.90
56512;DHT22;42408;53.238;5.686;2022-10-30T01:42:51;14.00;99.90
56512;DHT22;42408;53.238;5.686;2022-10-30T01:53:35;14.00;99.90
56512;DHT22;42408;53.238;5.686;2022-10-30T01:58:29;14.00;99.90
56512;DHT22;42408;53.238;5.686;2022-10-30T02:00:59;14.00;99.90
56512;DHT22;42408;53.238;5.686;2022-10-30T02:03:25;13.90;99.90
56512;DHT22;42408;53.238;5.686;2022-10-30T02:05:51;13.90;99.90
56512;DHT22;42408;53.238;5.686;2022-10-30T02:08:17;13.90;99.90
56512;DHT22;42408;53.238;5.686;2022-10-30T02:10:43;13.90;99.90
56512;DHT22;42408;53.238;5.686;2022-10-30T02:13:10;13.90;99.90
56512;DHT22;42408;53.238;5.686;2022-10-30T02:15:36;13.90;99.90
56512;DHT22;42408;53.238;5.686;2022-10-30T02:18:02;13.80;99.90
56512;DHT22;42408;53.238;5.686;2022-10-30T02:20:28;13.90;99.90
56512;DHT22;42408;53.238;5.686;2022-10-30T02:22:53;13.80;99.90
56512;DHT22;42408;53.238;5.686;2022-10-30T02:25:19;13.70;99.90
56512;DHT22;42408;53.238;5.686;2022-10-30T02:27:44;13.80;99.90
56512;DHT22;42408;53.238;5.686;2022-10-30T02:30:10;13.80;99.90
56512;DHT22;42408;53.238;5.686;2022-10-30T02:32:36;13.80;99.90
56512;DHT22;42408;53.238;5.686;2022-10-30T02:35:01;13.80;99.90
56512;DHT22;42408;53.238;5.686;2022-10-30T02:37:27;13.80;99.90
56512;DHT22;42408;53.238;5.686;2022-10-30T02:39:52;13.80;99.90
56512;DHT22;42408;53.238;5.686;2022-10-30T02:42:18;13.80;99.90
56512;DHT22;42408;53.238;5.686;2022-10-30T02:44:44;13.80;99.90
56512;DHT22;42408;53.238;5.686;2022-10-30T02:47:09;13.80;99.90
56512;DHT22;42408;53.238;5.686;2022-10-30T02:49:35;13.80;99.90
56512;DHT22;42408;53.238;5.686;2022-10-30T02:52:00;13.80;99.90
56512;DHT22;42408;53.238;5.686;2022-10-30T02:54:26;13.80;99.90
56512;DHT22;42408;53.238;5.686;2022-10-30T02:56:52;13.80;99.90
56512;DHT22;42408;53.238;5.686;2022-10-30T02:59:17;13.80;99.90
56512;DHT22;42408;53.238;5.686;2022-10-30T03:01:43;13.80;99.90
56512;DHT22;42408;53.238;5.686;2022-10-30T03:04:08;13.80;99.90
56512;DHT22;42408;53.238;5.686;2022-10-30T03:06:34;13.80;99.90
56512;DHT22;42408;53.238;5.686;2022-10-30T03:08:59;13.70;99.90
56512;DHT22;42408;53.238;5.686;2022-10-30T03:11:25;13.70;99.90
56512;DHT22;42408;53.238;5.686;2022-10-30T03:13:51;13.70;99.90
56512;DHT22;42408;53.238;5.686;2022-10-30T03:16:17;13.70;99.90
56512;DHT22;42408;53.238;5.686;2022-10-30T03:18:43;13.70;99.90
56512;DHT22;42408;53.238;5.686;2022-10-30T03:21:10;13.70;99.90
56512;DHT22;42408;53.238;5.686;2022-10-30T03:23:36;13.70;99.90
56512;DHT22;42408;53.238;5.686;2022-10-30T03:26:02;13.60;99.90
56512;DHT22;42408;53.238;5.686;2022-10-30T03:28:28;13.60;99.90
56512;DHT22;42408;53.238;5.686;2022-10-30T03:30:58;13.60;99.90
56512;DHT22;42408;53.238;5.686;2022-10-30T03:33:23;13.60;99.90
56512;DHT22;42408;53.238;5.686;2022-10-30T03:35:49;13.60;99.90
56512;DHT22;42408;53.238;5.686;2022-10-30T03:38:14;13.60;99.90
56512;DHT22;42408;53.238;5.686;2022-10-30T03:40:40;13.60;99.90
56512;DHT22;42408;53.238;5.686;2022-10-30T03:43:06;13.60;99.90
56512;DHT22;42408;53.238;5.686;2022-10-30T03:45:32;13.60;99.90
56512;DHT22;42408;53.238;5.686;2022-10-30T03:47:59;13.60;99.90
56512;DHT22;42408;53.238;5.686;2022-10-30T03:50:24;13.60;99.90
56512;DHT22;42408;53.238;5.686;2022-10-30T03:52:52;13.60;99.90
56512;DHT22;42408;53.238;5.686;2022-10-30T03:55:17;13.50;99.90
56512;DHT22;42408;53.238;5.686;2022-10-30T03:57:43;13.50;99.90
56512;DHT22;42408;53.238;5.686;2022-10-30T04:00:08;13.50;99.90
56512;DHT22;42408;53.238;5.686;2022-10-30T04:02:34;13.50;99.90
56512;DHT22;42408;53.238;5.686;2022-10-30T04:05:00;13.50;99.90
56512;DHT22;42408;53.238;5.686;2022-10-30T04:07:25;13.50;99.90
56512;DHT22;42408;53.238;5.686;2022-10-30T04:09:50;13.40;99.90
56512;DHT22;42408;53.238;5.686;2022-10-30T04:12:16;13.40;99.90
56512;DHT22;42408;53.238;5.686;2022-10-30T04:14:42;13.30;99.90
56512;DHT22;42408;53.238;5.686;2022-10-30T04:17:07;13.30;99.90
56512;DHT22;42408;53.238;5.686;2022-10-30T04:19:32;13.30;99.90
56512;DHT22;42408;53.238;5.686;2022-10-30T04:21:58;13.30;99.90
56512;DHT22;42408;53.238;5.686;2022-10-30T04:24:24;13.30;99.90
56512;DHT22;42408;53.238;5.686;2022-10-30T04:26:49;13.30;99.90
56512;DHT22;42408;53.238;5.686;2022-10-30T04:29:14;13.20;99.90
56512;DHT22;42408;53.238;5.686;2022-10-30T04:31:40;13.20;99.90
56512;DHT22;42408;53.238;5.686;2022-10-30T04:34:06;13.20;99.90
56512;DHT22;42408;53.238;5.686;2022-10-30T04:36:31;13.20;99.90
56512;DHT22;42408;53.238;5.686;2022-10-30T04:38:59;13.20;99.90
56512;DHT22;42408;53.238;5.686;2022-10-30T04:41:26;13.20;99.90
56512;DHT22;42408;53.238;5.686;2022-10-30T04:43:52;13.20;99.90
56512;DHT22;42408;53.238;5.686;2022-10-30T04:46:17;13.10;99.90
56512;DHT22;42408;53.238;5.686;2022-10-30T04:48:43;13.10;99.90
56512;DHT22;42408;53.238;5.686;2022-10-30T04:51:09;13.10;99.90
56512;DHT22;42408;53.238;5.686;2022-10-30T04:53:39;13.00;99.90
56512;DHT22;42408;53.238;5.686;2022-10-30T04:56:04;13.00;99.90
56512;DHT22;42408;53.238;5.686;2022-10-30T04:58:30;13.10;99.90
56512;DHT22;42408;53.238;5.686;2022-10-30T05:01:02;13.00;99.90
56512;DHT22;42408;53.238;5.686;2022-10-30T05:03:28;13.00;99.90
56512;DHT22;42408;53.238;5.686;2022-10-30T05:06:00;13.00;99.90
56512;DHT22;42408;53.238;5.686;2022-10-30T05:08:26;13.00;99.90
56512;DHT22;42408;53.238;5.686;2022-10-30T05:10:52;12.90;99.90
56512;DHT22;42408;53.238;5.686;2022-10-30T05:13:17;12.90;99.90
56512;DHT22;42408;53.238;5.686;2022-10-30T05:15:43;12.90;99.90
56512;DHT22;42408;53.238;5.686;2022-10-30T05:18:08;12.90;99.90
56512;DHT22;42408;53.238;5.686;2022-10-30T05:20:34;12.90;99.90
56512;DHT22;42408;53.238;5.686;2022-10-30T05:22:59;12.90;99.90
56512;DHT22;42408;53.238;5.686;2022-10-30T05:25:25;13.00;99.90
56512;DHT22;42408;53.238;5.686;2022-10-30T05:28:00;12.90;99.90
56512;DHT22;42408;53.238;5.686;2022-10-30T05:30:30;13.00;99.90
56512;DHT22;42408;53.238;5.686;2022-10-30T05:33:03;13.00;99.90
56512;DHT22;42408;53.238;5.686;2022-10-30T05:35:29;12.90;99.90
56512;DHT22;42408;53.238;5.686;2022-10-30T05:37:57;12.90;99.90
56512;DHT22;42408;53.238;5.686;2022-10-30T05:40:22;12.90;99.90
56512;DHT22;42408;53.238;5.686;2022-10-30T05:42:48;12.90;99.90
56512;DHT22;42408;53.238;5.686;2022-10-30T05:45:14;12.80;99.90
56512;DHT22;42408;53.238;5.686;2022-10-30T05:47:40;12.80;99.90
56512;DHT22;42408;53.238;5.686;2022-10-30T05:50:05;12.80;99.90
56512;DHT22;42408;53.238;5.686;2022-10-30T05:52:31;12.90;99.90
56512;DHT22;42408;53.238;5.686;2022-10-30T05:54:57;12.90;99.90
56512;DHT22;42408;53.238;5.686;2022-10-30T05:57:22;12.80;99.90
56512;DHT22;42408;53.238;5.686;2022-10-30T05:59:48;12.90;99.90
56512;DHT22;42408;53.238;5.686;2022-10-30T06:02:15;12.80;99.90
56512;DHT22;42408;53.238;5.686;2022-10-30T06:04:40;12.80;99.90
56512;DHT22;42408;53.238;5.686;2022-10-30T06:07:06;12.80;99.90
56512;DHT22;42408;53.238;5.686;2022-10-30T06:09:31;12.80;99.90
56512;DHT22;42408;53.238;5.686;2022-10-30T06:11:57;12.80;99.90
56512;DHT22;42408;53.238;5.686;2022-10-30T06:14:22;12.70;99.90
56512;DHT22;42408;53.238;5.686;2022-10-30T06:16:48;12.80;99.90
56512;DHT22;42408;53.238;5.686;2022-10-30T06:19:14;12.70;99.90
56512;DHT22;42408;53.238;5.686;2022-10-30T06:21:39;12.70;99.90
56512;DHT22;42408;53.238;5.686;2022-10-30T06:24:05;12.70;99.90
56512;DHT22;42408;53.238;5.686;2022-10-30T06:26:30;12.70;99.90
56512;DHT22;42408;53.238;5.686;2022-10-30T06:28:56;12.70;99.90
56512;DHT22;42408;53.238;5.686;2022-10-30T06:31:21;12.60;99.90
56512;DHT22;42408;53.238;5.686;2022-10-30T06:33:47;12.60;99.90
56512;DHT22;42408;53.238;5.686;2022-10-30T06:36:12;12.50;99.90
56512;DHT22;42408;53.238;5.686;2022-10-30T06:38:38;12.60;99.90
56512;DHT22;42408;53.238;5.686;2022-10-30T06:41:04;12.60;99.90
56512;DHT22;42408;53.238;5.686;2022-10-30T06:43:29;12.50;99.90
56512;DHT22;42408;53.238;5.686;2022-10-30T06:45:56;12.60;99.90
56512;DHT22;42408;53.238;5.686;2022-10-30T06:48:22;12.50;99.90
56512;DHT22;42408;53.238;5.686;2022-10-30T06:50:58;12.50;99.90
56512;DHT22;42408;53.238;5.686;2022-10-30T06:53:24;12.50;99.90
56512;DHT22;42408;53.238;5.686;2022-10-30T06:55:53;12.60;99.90
56512;DHT22;42408;53.238;5.686;2022-10-30T06:58:19;12.50;99.90
56512;DHT22;42408;53.238;5.686;2022-10-30T07:00:44;12.50;99.90
56512;DHT22;42408;53.238;5.686;2022-10-30T07:03:10;12.50;99.90
56512;DHT22;42408;53.238;5.686;2022-10-30T07:05:35;12.60;99.90
56512;DHT22;42408;53.238;5.686;2022-10-30T07:08:01;12.50;99.90
56512;DHT22;42408;53.238;5.686;2022-10-30T07:10:27;12.50;99.90
56512;DHT22;42408;53.238;5.686;2022-10-30T07:12:53;12.50;99.90
56512;DHT22;42408;53.238;5.686;2022-10-30T07:15:19;12.60;99.90
56512;DHT22;42408;53.238;5.686;2022-10-30T07:17:57;12.60;99.90
56512;DHT22;42408;53.238;5.686;2022-10-30T07:20:23;12.60;99.90
56512;DHT22;42408;53.238;5.686;2022-10-30T07:22:49;12.60;99.90
56512;DHT22;42408;53.238;5.686;2022-10-30T07:25:14;12.70;99.90
56512;DHT22;42408;53.238;5.686;2022-10-30T07:27:41;12.70;99.90
56512;DHT22;42408;53.238;5.686;2022-10-30T07:30:06;12.70;99.90
56512;DHT22;42408;53.238;5.686;2022-10-30T07:32:32;12.70;99.90
56512;DHT22;42408;53.238;5.686;2022-10-30T07:34:58;12.70;99.90
56512;DHT22;42408;53.238;5.686;2022-10-30T07:37:23;12.70;99.90
56512;DHT22;42408;53.238;5.686;2022-10-30T07:39:49;12.70;99.90
56512;DHT22;42408;53.238;5.686;2022-10-30T07:42:14;12.80;99.90
56512;DHT22;42408;53.238;5.686;2022-10-30T07:44:39;12.80;99.90
56512;DHT22;42408;53.238;5.686;2022-10-30T07:47:05;12.80;99.90
56512;DHT22;42408;53.238;5.686;2022-10-30T07:49:30;12.90;99.90
56512;DHT22;42408;53.238;5.686;2022-10-30T07:51:56;12.90;99.90
56512;DHT22;42408;53.238;5.686;2022-10-30T07:54:21;13.00;99.90
56512;DHT22;42408;53.238;5.686;2022-10-30T07:56:47;13.00;99.90
56512;DHT22;42408;53.238;5.686;2022-10-30T07:59:13;13.10;99.90
56512;DHT22;42408;53.238;5.686;2022-10-30T08:01:38;13.10;99.90
56512;DHT22;42408;53.238;5.686;2022-10-30T08:04:04;13.20;99.90
56512;DHT22;42408;53.238;5.686;2022-10-30T08:06:29;13.30;99.90
56512;DHT22;42408;53.238;5.686;2022-10-30T08:08:55;13.30;99.90
56512;DHT22;42408;53.238;5.686;2022-10-30T08:11:20;13.50;99.90
56512;DHT22;42408;53.238;5.686;2022-10-30T08:13:46;13.50;99.90
56512;DHT22;42408;53.238;5.686;2022-10-30T08:16:11;13.60;99.90
56512;DHT22;42408;53.238;5.686;2022-10-30T08:18:37;13.60;99.90
56512;DHT22;42408;53.238;5.686;2022-10-30T08:21:05;13.70;99.90
56512;DHT22;42408;53.238;5.686;2022-10-30T08:23:31;13.80;99.90
56512;DHT22;42408;53.238;5.686;2022-10-30T08:25:57;13.80;99.90
56512;DHT22;42408;53.238;5.686;2022-10-30T08:28:24;13.90;99.90
56512;DHT22;42408;53.238;5.686;2022-10-30T08:30:50;13.90;99.90
56512;DHT22;42408;53.238;5.686;2022-10-30T08:33:15;14.00;99.90
56512;DHT22;42408;53.238;5.686;2022-10-30T08:35:50;14.10;99.90
56512;DHT22;42408;53.238;5.686;2022-10-30T08:38:16;14.10;99.90
56512;DHT22;42408;53.238;5.686;2022-10-30T08:40:42;14.20;99.90
56512;DHT22;42408;53.238;5.686;2022-10-30T08:43:08;14.30;99.90
56512;DHT22;42408;53.238;5.686;2022-10-30T08:45:33;14.30;99.90
56512;DHT22;42408;53.238;5.686;2022-10-30T08:48:00;14.40;99.90
56512;DHT22;42408;53.238;5.686;2022-10-30T08:50:27;14.50;99.90
56512;DHT22;42408;53.238;5.686;2022-10-30T08:52:53;14.50;99.90
56512;DHT22;42408;53.238;5.686;2022-10-30T08:55:18;14.60;99.90
56512;DHT22;42408;53.238;5.686;2022-10-30T08:57:44;14.70;99.90
56512;DHT22;42408;53.238;5.686;2022-10-30T09:00:10;14.70;99.90
56512;DHT22;42408;53.238;5.686;2022-10-30T09:02:35;14.80;99.90
56512;DHT22;42408;53.238;5.686;2022-10-30T09:05:04;14.80;99.90
56512;DHT22;42408;53.238;5.686;2022-10-30T09:07:30;14.90;99.90
56512;DHT22;42408;53.238;5.686;2022-10-30T09:09:55;14.90;99.90
56512;DHT22;42408;53.238;5.686;2022-10-30T09:12:21;15.00;99.90
56512;DHT22;42408;53.238;5.686;2022-10-30T09:14:46;15.00;99.90
56512;DHT22;42408;53.238;5.686;2022-10-30T09:17:12;15.10;99.90
56512;DHT22;42408;53.238;5.686;2022-10-30T09:19:37;15.20;99.90
56512;DHT22;42408;53.238;5.686;2022-10-30T09:22:03;15.30;99.90
56512;DHT22;42408;53.238;5.686;2022-10-30T09:24:29;15.30;99.90
56512;DHT22;42408;53.238;5.686;2022-10-30T09:26:55;15.40;99.90
56512;DHT22;42408;53.238;5.686;2022-10-30T09:29:20;15.50;99.90
56512;DHT22;42408;53.238;5.686;2022-10-30T09:31:46;15.60;99.90
56512;DHT22;42408;53.238;5.686;2022-10-30T09:34:11;15.70;99.90
56512;DHT22;42408;53.238;5.686;2022-10-30T09:36:37;15.80;99.90
56512;DHT22;42408;53.238;5.686;2022-10-30T09:39:02;16.00;99.90
56512;DHT22;42408;53.238;5.686;2022-10-30T09:41:32;16.10;99.90
56512;DHT22;42408;53.238;5.686;2022-10-30T09:44:06;16.20;99.90
56512;DHT22;42408;53.238;5.686;2022-10-30T09:49:26;16.50;99.90
56512;DHT22;42408;53.238;5.686;2022-10-30T09:54:59;16.80;99.90
56512;DHT22;42408;53.238;5.686;2022-10-30T09:59:57;17.00;99.90
56512;DHT22;42408;53.238;5.686;2022-10-30T10:02:31;17.20;99.90
56512;DHT22;42408;53.238;5.686;2022-10-30T10:07:44;17.40;99.90
56512;DHT22;42408;53.238;5.686;2022-10-30T10:10:26;17.50;99.90
56512;DHT22;42408;53.238;5.686;2022-10-30T10:12:54;17.60;99.90
56512;DHT22;42408;53.238;5.686;2022-10-30T10:15:40;17.70;99.90
56512;DHT22;42408;53.238;5.686;2022-10-30T10:18:16;17.80;99.90
56512;DHT22;42408;53.238;5.686;2022-10-30T10:20:44;17.90;99.90
56512;DHT22;42408;53.238;5.686;2022-10-30T10:23:25;18.00;99.90
56512;DHT22;42408;53.238;5.686;2022-10-30T10:25:52;18.00;99.90
56512;DHT22;42408;53.238;5.686;2022-10-30T10:28:24;18.10;99.90
56512;DHT22;42408;53.238;5.686;2022-10-30T10:30:58;18.20;99.90
56512;DHT22;42408;53.238;5.686;2022-10-30T10:33:47;18.20;99.90
56512;DHT22;42408;53.238;5.686;2022-10-30T10:36:19;18.20;99.90
56512;DHT22;42408;53.238;5.686;2022-10-30T10:39:10;18.30;99.90
56512;DHT22;42408;53.238;5.686;2022-10-30T10:41:53;18.40;99.90
56512;DHT22;42408;53.238;5.686;2022-10-30T10:50:17;18.50;99.90
56512;DHT22;42408;53.238;5.686;2022-10-30T10:52:21;18.60;99.90
56512;DHT22;42408;53.238;5.686;2022-10-30T10:54:49;18.70;99.90
56512;DHT22;42408;53.238;5.686;2022-10-30T10:57:30;18.80;99.90
56512;DHT22;42408;53.238;5.686;2022-10-30T11:00:04;18.90;99.90
56512;DHT22;42408;53.238;5.686;2022-10-30T11:07:44;19.00;99.90
56512;DHT22;42408;53.238;5.686;2022-10-30T11:10:11;19.00;99.90
56512;DHT22;42408;53.238;5.686;2022-10-30T11:12:37;19.00;99.90
56512;DHT22;42408;53.238;5.686;2022-10-30T11:15:25;19.10;99.90
56512;DHT22;42408;53.238;5.686;2022-10-30T11:17:53;19.10;99.90
56512;DHT22;42408;53.238;5.686;2022-10-30T11:20:23;19.10;99.90
56512;DHT22;42408;53.238;5.686;2022-10-30T11:22:52;19.10;99.90
56512;DHT22;42408;53.238;5.686;2022-10-30T11:25:24;19.20;99.90
56512;DHT22;42408;53.238;5.686;2022-10-30T11:27:54;19.20;99.90
56512;DHT22;42408;53.238;5.686;2022-10-30T11:30:20;19.20;99.90
56512;DHT22;42408;53.238;5.686;2022-10-30T11:32:46;19.30;99.90
56512;DHT22;42408;53.238;5.686;2022-10-30T11:35:13;19.30;99.90
56512;DHT22;42408;53.238;5.686;2022-10-30T11:37:40;19.40;99.90
56512;DHT22;42408;53.238;5.686;2022-10-30T11:40:14;19.40;99.90
56512;DHT22;42408;53.238;5.686;2022-10-30T11:42:42;19.50;99.90
56512;DHT22;42408;53.238;5.686;2022-10-30T11:47:40;19.50;99.90
56512;DHT22;42408;53.238;5.686;2022-10-30T11:50:27;19.50;99.90
56512;DHT22;42408;53.238;5.686;2022-10-30T11:52:55;19.50;99.90
56512;DHT22;42408;53.238;5.686;2022-10-30T11:55:22;19.50;99.90
56512;DHT22;42408;53.238;5.686;2022-10-30T11:57:49;19.50;99.90
56512;DHT22;42408;53.238;5.686;2022-10-30T12:02:42;19.60;99.90
56512;DHT22;42408;53.238;5.686;2022-10-30T12:08:14;19.60;99.90
56512;DHT22;42408;53.238;5.686;2022-10-30T12:10:41;19.70;99.90
56512;DHT22;42408;53.238;5.686;2022-10-30T12:13:14;19.70;99.90
56512;DHT22;42408;53.238;5.686;2022-10-30T12:15:40;19.70;99.90
56512;DHT22;42408;53.238;5.686;2022-10-30T12:18:07;19.70;99.90
56512;DHT22;42408;53.238;5.686;2022-10-30T12:20:39;19.70;99.90
56512;DHT22;42408;53.238;5.686;2022-10-30T12:23:09;19.70;99.90
56512;DHT22;42408;53.238;5.686;2022-10-30T12:25:35;19.70;99.90
56512;DHT22;42408;53.238;5.686;2022-10-30T12:28:04;19.70;99.90
56512;DHT22;42408;53.238;5.686;2022-10-30T12:30:35;19.70;99.90
56512;DHT22;42408;53.238;5.686;2022-10-30T12:33:12;19.70;99.90
56512;DHT22;42408;53.238;5.686;2022-10-30T12:35:52;19.70;99.90
56512;DHT22;42408;53.238;5.686;2022-10-30T12:38:33;19.70;99.90
56512;DHT22;42408;53.238;5.686;2022-10-30T12:41:46;19.70;99.90
56512;DHT22;42408;53.238;5.686;2022-10-30T12:43:53;19.70;99.90
56512;DHT22;42408;53.238;5.686;2022-10-30T12:46:37;19.80;99.90
56512;DHT22;42408;53.238;5.686;2022-10-30T12:49:16;19.70;99.90
56512;DHT22;42408;53.238;5.686;2022-10-30T12:54:19;19.80;99.90
56512;DHT22;42408;53.238;5.686;2022-10-30T12:56:47;19.80;99.90
56512;DHT22;42408;53.238;5.686;2022-10-30T12:59:26;19.80;99.90
56512;DHT22;42408;53.238;5.686;2022-10-30T13:01:55;19.70;99.90
56512;DHT22;42408;53.238;5.686;2022-10-30T13:04:22;19.70;99.90
56512;DHT22;42408;53.238;5.686;2022-10-30T13:12:07;19.50;99.90
56512;DHT22;42408;53.238;5.686;2022-10-30T13:14:35;19.50;99.90
56512;DHT22;42408;53.238;5.686;2022-10-30T13:17:03;19.40;99.90
56512;DHT22;42408;53.238;5.686;2022-10-30T13:19:28;19.40;99.90
56512;DHT22;42408;53.238;5.686;2022-10-30T13:27:06;19.30;99.90
56512;DHT22;42408;53.238;5.686;2022-10-30T13:29:43;19.30;99.90
56512;DHT22;42408;53.238;5.686;2022-10-30T13:37:42;19.30;99.90
56512;DHT22;42408;53.238;5.686;2022-10-30T13:42:45;19.30;99.90
56512;DHT22;42408;53.238;5.686;2022-10-30T13:47:48;19.30;99.90
56512;DHT22;42408;53.238;5.686;2022-10-30T13:52:45;19.30;99.90
56512;DHT22;42408;53.238;5.686;2022-10-30T13:55:17;19.30;99.90
56512;DHT22;42408;53.238;5.686;2022-10-30T13:57:58;19.30;99.90
56512;DHT22;42408;53.238;5.686;2022-10-30T14:00:33;19.30;99.90
56512;DHT22;42408;53.238;5.686;2022-10-30T14:03:09;19.30;99.90
56512;DHT22;42408;53.238;5.686;2022-10-30T14:08:15;19.20;99.90
56512;DHT22;42408;53.238;5.686;2022-10-30T14:10:44;19.20;99.90
56512;DHT22;42408;53.238;5.686;2022-10-30T14:15:40;19.10;99.90
56512;DHT22;42408;53.238;5.686;2022-10-30T14:20:38;19.00;99.90
56512;DHT22;42408;53.238;5.686;2022-10-30T14:28:38;18.90;99.90
56512;DHT22;42408;53.238;5.686;2022-10-30T14:38:41;18.80;99.90
56512;DHT22;42408;53.238;5.686;2022-10-30T14:41:11;18.80;99.90
56512;DHT22;42408;53.238;5.686;2022-10-30T14:43:44;18.70;99.90
56512;DHT22;42408;53.238;5.686;2022-10-30T14:51:22;18.70;99.90
56512;DHT22;42408;53.238;5.686;2022-10-30T14:56:59;18.60;99.90
56512;DHT22;42408;53.238;5.686;2022-10-30T14:59:18;18.70;99.90
56512;DHT22;42408;53.238;5.686;2022-10-30T15:04:39;18.60;99.90
56512;DHT22;42408;53.238;5.686;2022-10-30T15:14:40;18.50;99.90
56512;DHT22;42408;53.238;5.686;2022-10-30T15:17:41;18.40;99.90
56512;DHT22;42408;53.238;5.686;2022-10-30T15:20:00;18.40;99.90
56512;DHT22;42408;53.238;5.686;2022-10-30T15:22:27;18.30;99.90
56512;DHT22;42408;53.238;5.686;2022-10-30T15:24:53;18.30;99.90
56512;DHT22;42408;53.238;5.686;2022-10-30T15:27:20;18.30;99.90
56512;DHT22;42408;53.238;5.686;2022-10-30T15:29:55;18.30;99.90
56512;DHT22;42408;53.238;5.686;2022-10-30T15:32:22;18.30;99.90
56512;DHT22;42408;53.238;5.686;2022-10-30T15:34:52;18.20;99.90
56512;DHT22;42408;53.238;5.686;2022-10-30T15:37:19;18.20;99.90
56512;DHT22;42408;53.238;5.686;2022-10-30T15:39:44;18.10;99.90
56512;DHT22;42408;53.238;5.686;2022-10-30T15:42:10;18.10;99.90
56512;DHT22;42408;53.238;5.686;2022-10-30T15:44:36;18.10;99.90
56512;DHT22;42408;53.238;5.686;2022-10-30T15:47:03;18.00;99.90
56512;DHT22;42408;53.238;5.686;2022-10-30T15:49:37;18.00;99.90
56512;DHT22;42408;53.238;5.686;2022-10-30T15:52:10;17.90;99.90
56512;DHT22;42408;53.238;5.686;2022-10-30T15:54:36;17.90;99.90
56512;DHT22;42408;53.238;5.686;2022-10-30T15:57:04;17.90;99.90
56512;DHT22;42408;53.238;5.686;2022-10-30T15:59:30;17.80;99.90
56512;DHT22;42408;53.238;5.686;2022-10-30T16:01:58;17.80;99.90
56512;DHT22;42408;53.238;5.686;2022-10-30T16:04:24;17.70;99.90
56512;DHT22;42408;53.238;5.686;2022-10-30T16:06:54;17.60;99.90
56512;DHT22;42408;53.238;5.686;2022-10-30T16:09:20;17.60;99.90
56512;DHT22;42408;53.238;5.686;2022-10-30T16:11:46;17.50;99.90
56512;DHT22;42408;53.238;5.686;2022-10-30T16:14:13;17.50;99.90
56512;DHT22;42408;53.238;5.686;2022-10-30T16:16:39;17.50;99.90
56512;DHT22;42408;53.238;5.686;2022-10-30T16:19:05;17.40;99.90
56512;DHT22;42408;53.238;5.686;2022-10-30T16:21:30;17.40;99.90
56512;DHT22;42408;53.238;5.686;2022-10-30T16:23:57;17.40;99.90
56512;DHT22;42408;53.238;5.686;2022-10-30T16:26:35;17.30;99.90
56512;DHT22;42408;53.238;5.686;2022-10-30T16:29:23;17.30;99.90
56512;DHT22;42408;53.238;5.686;2022-10-30T16:31:46;17.20;99.90
56512;DHT22;42408;53.238;5.686;2022-10-30T16:34:30;17.20;99.90
56512;DHT22;42408;53.238;5.686;2022-10-30T16:36:59;17.20;99.90
56512;DHT22;42408;53.238;5.686;2022-10-30T16:39:25;17.10;99.90
56512;DHT22;42408;53.238;5.686;2022-10-30T16:41:54;17.10;99.90
56512;DHT22;42408;53.238;5.686;2022-10-30T16:44:27;17.10;99.90
56512;DHT22;42408;53.238;5.686;2022-10-30T16:47:02;17.10;99.90
56512;DHT22;42408;53.238;5.686;2022-10-30T16:49:29;17.00;99.90
56512;DHT22;42408;53.238;5.686;2022-10-30T16:52:01;17.00;99.90
56512;DHT22;42408;53.238;5.686;2022-10-30T16:54:28;17.10;99.90
56512;DHT22;42408;53.238;5.686;2022-10-30T16:56:55;17.00;99.90
56512;DHT22;42408;53.238;5.686;2022-10-30T16:59:26;17.10;99.90
56512;DHT22;42408;53.238;5.686;2022-10-30T17:01:53;17.10;99.90
56512;DHT22;42408;53.238;5.686;2022-10-30T17:04:19;17.00;99.90
56512;DHT22;42408;53.238;5.686;2022-10-30T17:06:45;17.00;99.90
56512;DHT22;42408;53.238;5.686;2022-10-30T17:09:25;17.00;99.90
56512;DHT22;42408;53.238;5.686;2022-10-30T17:12:03;17.00;99.90
56512;DHT22;42408;53.238;5.686;2022-10-30T17:14:30;17.00;99.90
56512;DHT22;42408;53.238;5.686;2022-10-30T17:17:13;16.90;99.90
56512;DHT22;42408;53.238;5.686;2022-10-30T17:19:44;16.90;99.90
56512;DHT22;42408;53.238;5.686;2022-10-30T17:22:11;16.90;99.90
56512;DHT22;42408;53.238;5.686;2022-10-30T17:24:38;16.80;99.90
56512;DHT22;42408;53.238;5.686;2022-10-30T17:27:04;16.80;99.90
56512;DHT22;42408;53.238;5.686;2022-10-30T17:31:57;16.80;99.90
56512;DHT22;42408;53.238;5.686;2022-10-30T17:34:22;16.70;99.90
56512;DHT22;42408;53.238;5.686;2022-10-30T17:36:48;16.70;99.90